Time;durP1;ratioP1;P1;durP2;ratioP2;P2;SDS_P1;SDS_P2;PMS_P1;PMS_P2;Temp;Humidity;BMP_temperature;BMP_pressure;BME280_temperature;BME280_humidity;BME280_pressure;Samples;Min_cycle;Max_cycle;Signal;HPM_P1;HPM_P2
2022/12/27 00:06:29;;;;;;;22.10;15.83;;;8.40;99.90;;;;;;5838483;24;20222;-85
2022/12/27 00:26:40;;;;;;;20.87;15.83;;;8.40;99.90;;;;;;5760999;24;21151;-85
2022/12/27 00:57:23;;;;;;;20.50;14.53;;;8.30;99.90;;;;;;5778630;24;20291;-83
2022/12/27 01:27:40;;;;;;;17.20;13.47;;;8.70;99.90;;;;;;5674624;24;20256;-84
2022/12/27 01:58:03;;;;;;;14.20;11.23;;;9.00;99.90;;;;;;5801376;24;20343;-84
2022/12/27 02:33:22;;;;;;;13.53;11.47;;;8.80;99.90;;;;;;5830829;24;20486;-82
2022/12/27 03:18:55;;;;;;;13.63;11.33;;;8.20;99.90;;;;;;5846392;24;20832;-83
2022/12/27 03:43:57;;;;;;;3.13;2.40;;;6.60;99.90;;;;;;5784364;24;20518;-84
2022/12/27 05:45:35;;;;;;;11.20;2.30;;;3.80;99.90;;;;;;5766976;24;20639;-85
2022/12/27 06:06:17;;;;;;;6.53;2.10;;;3.80;99.90;;;;;;5807514;24;20182;-84
2022/12/27 06:31:54;;;;;;;10.27;2.70;;;3.60;99.90;;;;;;5747471;24;20323;-82
2022/12/27 07:12:28;;;;;;;10.20;2.67;;;3.00;99.90;;;;;;5831589;24;20564;-84
2022/12/27 07:16:53;;;;;;;6.97;2.40;;;3.00;99.90;;;;;;5726648;24;20578;-82
2022/12/27 07:42:14;;;;;;;9.10;2.40;;;3.30;99.90;;;;;;5809446;24;20357;-83
2022/12/27 08:08:01;;;;;;;12.77;3.57;;;3.60;99.90;;;;;;5766286;24;20209;-84
2022/12/27 08:38:38;;;;;;;11.00;3.27;;;4.70;99.90;;;;;;5937253;23;20181;-84
2022/12/27 09:09:00;;;;;;;9.47;3.60;;;4.90;99.90;;;;;;5931399;24;20231;-83
2022/12/27 09:38:55;;;;;;;9.90;3.53;;;5.40;97.20;;;;;;5779793;24;20649;-84
2022/12/27 10:35:04;;;;;;;9.27;4.47;;;5.60;96.10;;;;;;5913323;23;20697;-80
2022/12/27 11:20:24;;;;;;;12.37;4.27;;;5.80;91.20;;;;;;5852570;23;20924;-83
2022/12/27 11:35:57;;;;;;;8.90;5.30;;;5.90;90.90;;;;;;5839349;24;20226;-84
2022/12/27 12:11:01;;;;;;;8.80;4.30;;;5.40;91.80;;;;;;5635919;24;20520;-83
2022/12/27 13:47:42;;;;;;;10.00;7.03;;;4.90;96.40;;;;;;5605313;24;20524;-85
2022/12/27 14:23:23;;;;;;;11.83;7.60;;;4.80;96.40;;;;;;5698782;24;20357;-81
2022/12/27 14:48:41;;;;;;;13.70;8.33;;;4.90;99.90;;;;;;5707257;24;20202;-85
2022/12/27 15:19:03;;;;;;;11.83;7.77;;;4.50;99.90;;;;;;5907206;23;20264;-84
2022/12/27 15:54:07;;;;;;;12.47;8.37;;;4.70;99.90;;;;;;5639942;24;20453;-84
2022/12/27 16:35:15;;;;;;;11.73;7.93;;;4.80;98.40;;;;;;5998389;23;20604;-82
2022/12/27 17:45:41;;;;;;;13.67;7.27;;;4.60;99.20;;;;;;5992441;23;20480;-80
2022/12/27 18:06:29;;;;;;;11.77;6.87;;;4.60;99.30;;;;;;5987295;23;20301;-82
2022/12/27 19:31:16;;;;;;;10.77;6.37;;;4.70;97.10;;;;;;6079538;23;20647;-84
2022/12/27 20:01:39;;;;;;;11.70;6.87;;;4.60;96.30;;;;;;5920831;23;20805;-85
2022/12/27 20:42:13;;;;;;;11.93;7.90;;;3.80;99.90;;;;;;5921756;23;20160;-83
2022/12/27 21:12:00;;;;;;;10.83;7.00;;;4.20;99.00;;;;;;5792491;24;21051;-85
2022/12/27 21:32:45;;;;;;;10.13;6.37;;;4.30;97.40;;;;;;5850138;24;20248;-83
2022/12/27 22:08:26;;;;;;;12.43;6.03;;;4.30;96.60;;;;;;6006262;23;20173;-84
2022/12/27 22:12:46;;;;;;;12.53;6.60;;;4.30;96.80;;;;;;5844815;24;20606;-83
2022/12/27 22:43:19;;;;;;;14.87;7.33;;;4.40;96.70;;;;;;5929523;23;20204;-82
2022/12/27 23:03:58;;;;;;;11.07;6.73;;;4.40;97.20;;;;;;5941687;23;20178;-84
2022/12/27 23:24:06;;;;;;;12.10;7.00;;;4.50;96.30;;;;;;5951175;23;20517;-83
2022/12/27 23:54:27;;;;;;;12.97;6.90;;;4.30;97.70;;;;;;5976849;23;20576;-82
